createdAt,value
2018-09-26T00:00:32.969Z,2.00
2018-09-26T00:03:08.662Z,1.60
2018-09-26T00:05:36.982Z,1.40
2018-09-26T00:08:05.268Z,1.80
2018-09-26T00:10:33.540Z,1.67
2018-09-26T00:13:01.828Z,1.73
2018-09-26T00:15:30.175Z,1.33
2018-09-26T00:17:58.554Z,1.43
2018-09-26T00:20:26.907Z,1.60
2018-09-26T00:22:55.265Z,1.50
2018-09-26T00:25:23.630Z,1.90
2018-09-26T00:27:51.969Z,1.47
2018-09-26T00:30:20.427Z,1.90
2018-09-26T00:32:48.781Z,1.70
2018-09-26T00:35:17.474Z,2.30
2018-09-26T00:37:45.846Z,1.77
2018-09-26T00:40:14.222Z,1.53
2018-09-26T00:42:42.649Z,1.40
2018-09-26T00:45:11.048Z,1.53
2018-09-26T00:47:41.507Z,1.50
2018-09-26T00:50:11.946Z,1.70
2018-09-26T00:52:40.315Z,1.17
2018-09-26T00:55:08.681Z,1.60
2018-09-26T00:57:36.935Z,1.20
2018-09-26T01:00:05.593Z,1.40
2018-09-26T01:02:33.925Z,1.40
2018-09-26T01:05:02.206Z,1.73
2018-09-26T01:07:30.457Z,1.33
2018-09-26T01:09:58.768Z,1.20
2018-09-26T01:12:27.143Z,1.37
2018-09-26T01:14:55.487Z,1.63
2018-09-26T01:17:23.756Z,1.50
2018-09-26T01:19:52.075Z,1.60
2018-09-26T01:22:20.516Z,1.10
2018-09-26T01:24:48.859Z,1.10
2018-09-26T01:27:17.180Z,1.33
2018-09-26T01:29:45.479Z,1.00
2018-09-26T01:32:13.776Z,1.40
2018-09-26T01:34:42.220Z,1.73
2018-09-26T01:37:10.502Z,1.03
2018-09-26T01:39:38.785Z,1.73
2018-09-26T01:42:07.067Z,1.40
2018-09-26T01:44:35.439Z,1.90
2018-09-26T01:47:03.714Z,1.67
2018-09-26T01:49:32.004Z,1.47
2018-09-26T01:52:00.314Z,0.90
2018-09-26T01:54:28.680Z,1.00
2018-09-26T01:56:57.106Z,0.90
2018-09-26T01:59:25.374Z,1.23
2018-09-26T02:01:53.728Z,1.13
2018-09-26T02:04:22.046Z,1.03
2018-09-26T02:06:50.378Z,1.10
2018-09-26T02:09:18.795Z,1.30
2018-09-26T02:11:47.191Z,0.70
2018-09-26T02:14:15.475Z,1.07
2018-09-26T02:16:43.767Z,1.30
2018-09-26T02:19:12.015Z,1.27
2018-09-26T02:21:40.314Z,1.47
2018-09-26T02:24:08.760Z,0.80
2018-09-26T02:26:37.079Z,0.83
2018-09-26T02:29:05.537Z,0.93
2018-09-26T02:31:33.828Z,1.53
2018-09-26T02:34:02.172Z,0.97
2018-09-26T02:36:30.613Z,1.33
2018-09-26T02:38:58.952Z,1.23
2018-09-26T02:41:27.266Z,1.20
2018-09-26T02:43:55.619Z,1.50
2018-09-26T02:46:23.967Z,1.10
2018-09-26T02:48:57.791Z,1.50
2018-09-26T02:51:26.092Z,0.87
2018-09-26T02:53:54.569Z,1.10
2018-09-26T02:56:23.011Z,1.10
2018-09-26T02:58:51.303Z,0.97
2018-09-26T03:01:19.600Z,1.10
2018-09-26T03:03:47.866Z,1.37
2018-09-26T03:06:16.188Z,0.90
2018-09-26T03:08:44.589Z,1.33
2018-09-26T03:11:13.000Z,0.93
2018-09-26T03:13:41.289Z,1.20
2018-09-26T03:16:09.597Z,1.13
2018-09-26T03:18:38.230Z,1.43
2018-09-26T03:21:06.635Z,1.50
2018-09-26T03:23:34.900Z,1.17
2018-09-26T03:26:03.176Z,1.50
2018-09-26T03:28:31.467Z,0.90
2018-09-26T03:30:59.784Z,1.00
2018-09-26T03:33:28.144Z,1.50
2018-09-26T03:35:56.598Z,0.97
2018-09-26T03:38:25.107Z,0.90
2018-09-26T03:40:53.594Z,1.43
2018-09-26T03:43:22.979Z,1.13
2018-09-26T03:45:51.286Z,1.47
2018-09-26T03:48:19.627Z,1.43
2018-09-26T03:50:47.897Z,1.40
2018-09-26T03:53:16.344Z,1.07
2018-09-26T03:55:44.667Z,1.30
2018-09-26T03:58:13.042Z,1.13
2018-09-26T04:00:41.336Z,1.20
2018-09-26T04:03:09.619Z,1.80
2018-09-26T04:05:37.883Z,1.50
2018-09-26T04:08:06.240Z,1.07
2018-09-26T04:10:34.607Z,1.80
2018-09-26T04:13:03.067Z,1.43
2018-09-26T04:15:31.417Z,1.60
2018-09-26T04:17:59.799Z,1.20
2018-09-26T04:20:28.320Z,1.43
2018-09-26T04:22:56.627Z,1.73
2018-09-26T04:25:24.898Z,1.17
2018-09-26T04:27:53.253Z,1.53
2018-09-26T04:30:21.649Z,1.70
2018-09-26T04:32:50.217Z,1.60
2018-09-26T04:35:18.443Z,2.33
2018-09-26T04:37:46.859Z,1.63
2018-09-26T04:40:15.171Z,1.83
2018-09-26T04:42:43.457Z,1.17
2018-09-26T04:45:11.715Z,1.50
2018-09-26T04:47:40.024Z,1.50
2018-09-26T04:50:08.319Z,1.73
2018-09-26T04:52:36.790Z,1.90
2018-09-26T04:55:05.232Z,1.93
2018-09-26T04:57:33.640Z,1.53
2018-09-26T05:00:01.972Z,1.40
2018-09-26T05:02:30.356Z,1.27
2018-09-26T05:04:58.772Z,1.57
2018-09-26T05:07:27.075Z,1.50
2018-09-26T05:09:55.323Z,2.03
2018-09-26T05:12:23.619Z,1.50
2018-09-26T05:14:51.975Z,1.57
2018-09-26T05:17:20.324Z,1.40
2018-09-26T05:19:48.628Z,1.93
2018-09-26T05:22:16.947Z,1.37
2018-09-26T05:24:45.286Z,1.20
2018-09-26T05:27:13.743Z,1.50
2018-09-26T05:29:42.196Z,2.30
2018-09-26T05:32:10.548Z,2.00
2018-09-26T05:34:38.803Z,2.40
2018-09-26T05:37:07.135Z,1.50
2018-09-26T05:43:07.562Z,1.57
2018-09-26T05:45:35.814Z,1.63
2018-09-26T05:48:04.253Z,1.60
2018-09-26T05:50:32.577Z,1.83
2018-09-26T05:53:00.866Z,1.40
2018-09-26T05:55:29.143Z,1.80
2018-09-26T05:57:57.468Z,1.17
2018-09-26T06:00:25.784Z,1.37
2018-09-26T06:02:54.108Z,1.63
2018-09-26T06:05:22.472Z,1.27
2018-09-26T06:07:50.803Z,1.73
2018-09-26T06:10:19.117Z,1.27
2018-09-26T06:12:47.411Z,2.00
2018-09-26T06:15:15.739Z,1.70
2018-09-26T06:17:44.031Z,1.37
2018-09-26T06:20:12.330Z,1.83
2018-09-26T06:22:41.086Z,1.50
2018-09-26T06:25:09.463Z,1.40
2018-09-26T06:27:37.796Z,1.70
2018-09-26T06:30:07.527Z,1.27
2018-09-26T06:32:35.915Z,1.53
2018-09-26T06:35:04.370Z,1.43
2018-09-26T06:37:32.700Z,1.00
2018-09-26T06:40:01.009Z,1.43
2018-09-26T06:42:29.554Z,1.30
2018-09-26T06:44:57.945Z,1.50
2018-09-26T06:47:26.361Z,1.27
2018-09-26T06:49:54.641Z,1.03
2018-09-26T06:52:23.008Z,1.60
2018-09-26T06:54:51.343Z,1.70
2018-09-26T06:57:19.660Z,1.70
2018-09-26T06:59:48.012Z,1.60
2018-09-26T07:02:16.374Z,1.40
2018-09-26T07:04:44.922Z,1.40
2018-09-26T07:07:13.280Z,1.23
2018-09-26T07:09:41.539Z,1.43
2018-09-26T07:12:09.854Z,1.33
2018-09-26T07:14:38.235Z,1.10
2018-09-26T07:17:06.710Z,1.43
2018-09-26T07:19:35.168Z,1.07
2018-09-26T07:22:03.435Z,1.10
2018-09-26T07:24:31.735Z,1.33
2018-09-26T07:27:00.125Z,1.47
2018-09-26T07:29:28.498Z,1.13
2018-09-26T07:31:56.890Z,1.60
2018-09-26T07:34:30.711Z,1.17
2018-09-26T07:36:59.580Z,1.17
2018-09-26T07:39:27.955Z,1.30
2018-09-26T07:41:56.352Z,1.33
2018-09-26T07:44:24.820Z,1.50
2018-09-26T07:46:53.328Z,1.20
2018-09-26T07:49:21.639Z,1.10
2018-09-26T07:51:49.967Z,1.10
2018-09-26T07:54:18.792Z,0.97
2018-09-26T07:56:47.409Z,1.50
2018-09-26T07:59:15.826Z,1.20
2018-09-26T08:01:44.230Z,1.20
2018-09-26T08:04:12.636Z,1.00
2018-09-26T08:19:39.219Z,1.13
2018-09-26T08:22:07.601Z,1.10
2018-09-26T08:24:35.912Z,0.77
2018-09-26T08:27:04.365Z,1.10
2018-09-26T08:29:32.696Z,1.20
2018-09-26T08:32:01.171Z,0.90
2018-09-26T08:34:29.538Z,1.20
2018-09-26T08:36:57.856Z,1.00
2018-09-26T08:39:26.209Z,1.27
2018-09-26T08:41:54.557Z,0.90
2018-09-26T08:44:22.890Z,0.97
2018-09-26T08:46:51.270Z,1.07
2018-09-26T08:49:19.649Z,0.80
2018-09-26T08:51:48.045Z,0.90
2018-09-26T08:54:16.417Z,1.00
2018-09-26T08:56:44.815Z,0.77
2018-09-26T08:59:13.855Z,1.03
2018-09-26T09:01:46.447Z,0.80
2018-09-26T09:04:15.749Z,1.23
2018-09-26T09:06:44.357Z,1.47
2018-09-26T09:09:12.704Z,0.90
2018-09-26T09:11:41.071Z,0.87
2018-09-26T09:14:09.464Z,0.93
2018-09-26T09:16:37.763Z,0.93
2018-09-26T09:19:06.134Z,1.00
2018-09-26T09:21:34.527Z,0.90
2018-09-26T09:24:03.086Z,1.07
2018-09-26T09:26:32.406Z,0.97
2018-09-26T09:29:00.795Z,1.10
2018-09-26T09:31:29.139Z,1.00
2018-09-26T09:33:57.537Z,0.90
2018-09-26T09:36:25.985Z,1.37
2018-09-26T09:38:54.302Z,0.93
2018-09-26T09:41:22.683Z,0.70
2018-09-26T09:43:51.138Z,0.77
2018-09-26T09:46:19.448Z,0.90
2018-09-26T09:48:47.827Z,0.97
2018-09-26T09:51:17.304Z,0.70
2018-09-26T09:53:46.874Z,0.97
2018-09-26T09:56:15.236Z,0.60
2018-09-26T09:58:43.844Z,0.80
2018-09-26T10:01:17.810Z,0.53
2018-09-26T10:03:46.275Z,0.70
2018-09-26T10:06:14.734Z,0.73
2018-09-26T10:08:43.107Z,0.70
2018-09-26T10:11:11.497Z,0.83
2018-09-26T10:13:39.943Z,0.57
2018-09-26T10:16:08.331Z,1.03
2018-09-26T10:18:36.690Z,0.63
2018-09-26T10:21:05.538Z,0.53
2018-09-26T10:23:33.835Z,0.60
2018-09-26T10:26:02.334Z,0.50
2018-09-26T10:28:30.705Z,0.67
2018-09-26T10:30:59.095Z,0.70
2018-09-26T10:33:27.804Z,0.50
2018-09-26T10:35:56.179Z,0.60
2018-09-26T10:38:24.582Z,0.57
2018-09-26T10:40:53.092Z,0.50
2018-09-26T10:43:21.399Z,0.50
2018-09-26T10:45:50.016Z,0.80
2018-09-26T10:48:18.407Z,0.40
2018-09-26T10:50:46.804Z,0.60
2018-09-26T10:53:15.096Z,0.57
2018-09-26T10:55:43.776Z,0.50
2018-09-26T10:58:12.098Z,0.40
2018-09-26T11:00:40.444Z,0.80
2018-09-26T11:03:08.828Z,0.53
2018-09-26T11:05:37.194Z,0.80
2018-09-26T11:08:05.615Z,0.33
2018-09-26T11:10:34.069Z,0.80
2018-09-26T11:13:02.420Z,0.47
2018-09-26T11:18:29.891Z,0.37
2018-09-26T11:20:58.248Z,0.50
2018-09-26T11:23:26.587Z,0.50
2018-09-26T11:25:54.986Z,0.50
2018-09-26T11:28:23.397Z,0.47
2018-09-26T11:30:51.755Z,0.30
2018-09-26T11:33:20.178Z,0.67
2018-09-26T11:35:48.469Z,0.80
2018-09-26T11:38:16.920Z,0.40
2018-09-26T11:40:45.232Z,0.93
2018-09-26T11:43:13.596Z,0.57
2018-09-26T11:45:41.881Z,0.60
2018-09-26T11:48:10.186Z,0.60
2018-09-26T11:50:38.584Z,0.70
2018-09-26T11:53:06.900Z,0.30
2018-09-26T11:55:35.197Z,0.40
2018-09-26T11:58:03.467Z,0.40
2018-09-26T12:00:31.792Z,0.50
2018-09-26T12:03:00.101Z,0.60
2018-09-26T12:05:28.397Z,0.70
2018-09-26T12:07:56.767Z,0.80
2018-09-26T12:10:25.201Z,0.50
2018-09-26T12:12:53.459Z,0.60
2018-09-26T12:15:21.832Z,0.60
2018-09-26T12:17:50.258Z,0.57
2018-09-26T12:20:18.607Z,0.90
2018-09-26T12:22:46.955Z,0.63
2018-09-26T12:25:15.304Z,0.60
2018-09-26T12:27:43.661Z,0.80
2018-09-26T12:30:12.065Z,0.50
2018-09-26T12:32:40.371Z,0.60
2018-09-26T12:35:08.663Z,0.43
2018-09-26T12:37:37.117Z,1.23
2018-09-26T12:40:05.662Z,0.80
2018-09-26T12:42:33.981Z,0.40
2018-09-26T12:45:02.472Z,0.50
2018-09-26T12:47:30.968Z,0.37
2018-09-26T12:49:59.440Z,0.53
2018-09-26T12:52:31.065Z,0.80
2018-09-26T12:55:00.554Z,0.40
2018-09-26T12:57:29.088Z,0.40
2018-09-26T12:59:57.567Z,0.50
2018-09-26T13:02:25.976Z,0.70
2018-09-26T13:04:54.395Z,0.40
2018-09-26T13:07:22.788Z,0.60
2018-09-26T13:09:51.151Z,0.50
2018-09-26T13:12:19.646Z,0.77
2018-09-26T13:14:48.136Z,0.50
2018-09-26T13:17:17.079Z,0.40
2018-09-26T13:19:45.544Z,0.80
2018-09-26T13:22:13.991Z,0.30
2018-09-26T13:24:42.347Z,0.77
2018-09-26T13:27:10.734Z,0.50
2018-09-26T13:29:43.731Z,0.40
2018-09-26T13:32:16.829Z,0.80
2018-09-26T13:34:45.353Z,0.90
2018-09-26T13:37:13.896Z,0.73
2018-09-26T13:39:42.227Z,0.50
2018-09-26T13:42:10.685Z,0.40
2018-09-26T13:44:39.047Z,0.40
2018-09-26T13:47:07.521Z,0.60
2018-09-26T13:49:35.898Z,0.40
2018-09-26T13:52:04.266Z,0.50
2018-09-26T13:54:32.704Z,0.60
2018-09-26T13:57:01.036Z,0.70
2018-09-26T13:59:29.561Z,0.53
2018-09-26T14:01:57.989Z,0.60
2018-09-26T14:04:26.408Z,0.60
2018-09-26T14:06:54.735Z,0.30
2018-09-26T14:09:23.080Z,0.50
2018-09-26T14:11:51.653Z,0.70
2018-09-26T14:14:20.113Z,0.50
2018-09-26T14:16:48.615Z,0.63
2018-09-26T14:19:18.752Z,0.50
2018-09-26T14:21:47.435Z,0.60
2018-09-26T14:24:16.082Z,0.60
2018-09-26T14:26:44.924Z,0.60
2018-09-26T14:29:13.820Z,0.30
2018-09-26T14:31:42.528Z,0.90
2018-09-26T14:34:11.262Z,0.63
2018-09-26T14:36:40.048Z,0.50
2018-09-26T14:39:13.549Z,0.70
2018-09-26T14:41:43.315Z,0.67
2018-09-26T14:44:12.060Z,0.50
2018-09-26T14:46:40.662Z,0.57
2018-09-26T14:49:09.334Z,0.40
2018-09-26T14:51:38.149Z,0.30
2018-09-26T14:54:06.980Z,0.70
2018-09-26T14:56:35.833Z,0.47
2018-09-26T14:59:04.503Z,0.77
2018-09-26T15:01:33.225Z,0.80
2018-09-26T15:04:01.952Z,0.80
2018-09-26T15:06:30.748Z,0.70
2018-09-26T15:08:59.576Z,0.60
2018-09-26T15:11:28.277Z,0.83
2018-09-26T15:13:57.039Z,0.70
2018-09-26T15:16:25.908Z,0.60
2018-09-26T15:18:54.587Z,0.50
2018-09-26T15:21:23.453Z,0.60
2018-09-26T15:23:52.115Z,0.70
2018-09-26T15:26:20.861Z,0.60
2018-09-26T15:28:49.697Z,0.60
2018-09-26T15:31:18.366Z,0.40
2018-09-26T15:33:47.006Z,0.93
2018-09-26T15:36:22.484Z,0.90
2018-09-26T15:38:51.217Z,0.63
2018-09-26T15:41:19.773Z,0.50
2018-09-26T15:43:48.404Z,0.43
2018-09-26T15:46:17.102Z,1.30
2018-09-26T15:48:45.645Z,0.90
2018-09-26T15:51:14.376Z,0.80
2018-09-26T15:53:43.147Z,0.60
2018-09-26T15:56:11.835Z,0.80
2018-09-26T15:58:40.556Z,1.13
2018-09-26T16:01:09.222Z,0.67
2018-09-26T16:03:37.727Z,0.60
2018-09-26T16:06:06.087Z,0.60
2018-09-26T16:08:34.460Z,0.80
2018-09-26T16:11:02.890Z,0.50
2018-09-26T16:13:31.206Z,0.70
2018-09-26T16:15:59.480Z,0.70
2018-09-26T16:18:27.871Z,0.70
2018-09-26T16:20:56.238Z,0.77
2018-09-26T16:23:24.595Z,0.63
2018-09-26T16:25:53.064Z,0.50
2018-09-26T16:28:21.391Z,0.50
2018-09-26T16:30:49.828Z,0.60
2018-09-26T16:33:18.131Z,0.53
2018-09-26T16:35:46.487Z,0.90
2018-09-26T16:38:14.893Z,0.60
2018-09-26T16:40:43.240Z,0.83
2018-09-26T16:43:11.691Z,0.73
2018-09-26T16:45:39.927Z,0.60
2018-09-26T16:48:08.285Z,0.63
2018-09-26T16:50:36.563Z,0.60
2018-09-26T16:53:05.979Z,0.60
2018-09-26T16:55:34.271Z,0.40
2018-09-26T16:58:02.537Z,0.70
2018-09-26T17:00:30.849Z,0.80
2018-09-26T17:02:59.243Z,0.83
2018-09-26T17:05:27.707Z,0.90
2018-09-26T17:07:56.076Z,0.63
2018-09-26T17:10:24.507Z,0.93
2018-09-26T17:12:52.831Z,0.80
2018-09-26T17:15:21.094Z,0.53
2018-09-26T17:17:49.412Z,0.50
2018-09-26T17:20:17.795Z,1.00
2018-09-26T17:22:46.169Z,0.63
2018-09-26T17:25:14.501Z,0.50
2018-09-26T17:27:43.083Z,0.93
2018-09-26T17:30:11.453Z,0.83
2018-09-26T17:32:39.758Z,1.00
2018-09-26T17:35:08.391Z,0.80
2018-09-26T17:37:36.784Z,0.70
2018-09-26T17:40:06.254Z,0.80
2018-09-26T17:42:34.724Z,0.90
2018-09-26T17:45:03.083Z,0.90
2018-09-26T17:47:31.362Z,0.70
2018-09-26T17:49:59.721Z,0.97
2018-09-26T17:52:28.155Z,0.90
2018-09-26T17:54:56.537Z,1.33
2018-09-26T17:57:24.971Z,0.80
2018-09-26T17:59:53.287Z,0.97
2018-09-26T18:02:21.749Z,0.87
2018-09-26T18:04:50.250Z,0.73
2018-09-26T18:07:18.674Z,0.83
2018-09-26T18:09:47.306Z,0.67
2018-09-26T18:12:15.707Z,0.60
2018-09-26T18:14:44.439Z,1.23
2018-09-26T18:17:12.749Z,0.53
2018-09-26T18:19:41.149Z,0.90
2018-09-26T18:22:09.644Z,0.80
2018-09-26T18:24:38.082Z,0.67
2018-09-26T18:27:06.770Z,0.90
2018-09-26T18:29:35.236Z,1.00
2018-09-26T18:32:03.606Z,0.43
2018-09-26T18:34:32.088Z,0.90
2018-09-26T18:37:01.290Z,0.80
2018-09-26T18:39:29.820Z,0.60
2018-09-26T18:41:58.185Z,0.90
2018-09-26T18:44:26.863Z,0.70
2018-09-26T18:46:55.533Z,1.17
2018-09-26T18:49:23.840Z,1.10
2018-09-26T18:51:52.397Z,0.67
2018-09-26T18:54:20.911Z,0.77
2018-09-26T18:56:49.280Z,0.90
2018-09-26T18:59:17.772Z,0.97
2018-09-26T19:01:46.065Z,0.90
2018-09-26T19:04:14.524Z,0.60
2018-09-26T19:06:42.993Z,0.60
2018-09-26T19:09:12.149Z,0.60
2018-09-26T19:11:40.645Z,0.60
2018-09-26T19:14:09.082Z,0.73
2018-09-26T19:16:37.476Z,0.80
2018-09-26T19:19:06.138Z,0.80
2018-09-26T19:21:34.641Z,0.90
2018-09-26T19:24:03.159Z,1.00
2018-09-26T19:26:31.773Z,0.70
2018-09-26T19:29:00.230Z,0.80
2018-09-26T19:31:28.695Z,1.10
2018-09-26T19:33:57.273Z,0.70
2018-09-26T19:36:25.770Z,0.70
2018-09-26T19:38:54.100Z,0.50
2018-09-26T19:41:22.463Z,0.50
2018-09-26T19:43:50.881Z,0.83
2018-09-26T19:46:19.339Z,0.60
2018-09-26T19:48:47.714Z,0.80
2018-09-26T19:51:16.215Z,0.67
2018-09-26T19:53:44.571Z,0.70
2018-09-26T19:56:12.981Z,0.70
2018-09-26T19:58:41.485Z,0.83
2018-09-26T20:01:09.999Z,0.40
2018-09-26T20:05:02.799Z,0.60
2018-09-26T20:07:31.144Z,0.60
2018-09-26T20:09:59.451Z,0.77
2018-09-26T20:12:27.906Z,0.80
2018-09-26T20:14:58.507Z,0.70
2018-09-26T20:17:26.888Z,0.70
2018-09-26T20:19:55.360Z,0.50
2018-09-26T20:22:23.913Z,0.60
2018-09-26T20:24:52.526Z,0.63
2018-09-26T20:27:20.989Z,0.50
2018-09-26T20:29:52.128Z,0.63
2018-09-26T20:32:27.133Z,0.60
2018-09-26T20:37:44.698Z,0.77
2018-09-26T20:40:14.324Z,0.60
2018-09-26T20:42:43.502Z,0.70
2018-09-26T20:45:12.676Z,0.70
2018-09-26T20:47:41.987Z,0.60
2018-09-26T20:50:10.397Z,0.50
2018-09-26T20:52:38.963Z,0.83
2018-09-26T20:55:07.325Z,0.70
2018-09-26T20:57:35.710Z,0.60
2018-09-26T21:00:04.591Z,0.70
2018-09-26T21:02:32.957Z,0.80
2018-09-26T21:05:02.060Z,0.90
2018-09-26T21:07:30.499Z,0.60
2018-09-26T21:09:59.046Z,0.67
2018-09-26T21:12:27.565Z,0.50
2018-09-26T21:14:56.206Z,0.60
2018-09-26T21:17:24.752Z,0.60
2018-09-26T21:19:53.087Z,0.67
2018-09-26T21:22:21.480Z,0.87
2018-09-26T21:24:49.918Z,0.87
2018-09-26T21:27:19.724Z,0.70
2018-09-26T21:29:50.524Z,0.83
2018-09-26T21:32:18.884Z,0.47
2018-09-26T21:34:47.209Z,0.70
2018-09-26T21:37:15.647Z,0.70
2018-09-26T21:39:43.979Z,0.70
2018-09-26T21:42:12.346Z,0.80
2018-09-26T21:44:40.661Z,0.80
2018-09-26T21:47:09.003Z,0.70
2018-09-26T21:49:37.295Z,0.67
2018-09-26T21:52:05.576Z,0.70
2018-09-26T21:54:34.929Z,0.60
2018-09-26T21:58:40.022Z,1.00
2018-09-26T22:01:13.808Z,0.90
2018-09-26T22:03:42.120Z,0.60
2018-09-26T22:06:10.881Z,0.50
2018-09-26T22:08:39.149Z,0.80
2018-09-26T22:11:07.461Z,0.90
2018-09-26T22:13:35.823Z,0.57
2018-09-26T22:16:04.119Z,0.67
2018-09-26T22:18:32.478Z,0.70
2018-09-26T22:21:00.755Z,0.60
2018-09-26T22:23:29.065Z,0.57
2018-09-26T22:25:57.490Z,0.70
2018-09-26T22:28:25.815Z,0.70
2018-09-26T22:30:54.230Z,0.83
2018-09-26T22:33:22.558Z,0.83
2018-09-26T22:35:50.851Z,0.80
2018-09-26T22:38:19.255Z,0.63
2018-09-26T22:40:47.571Z,0.90
2018-09-26T22:43:15.877Z,0.83
2018-09-26T22:45:45.161Z,1.03
2018-09-26T22:48:13.432Z,0.80
2018-09-26T22:50:41.713Z,0.77
2018-09-26T22:53:10.013Z,0.70
2018-09-26T22:55:38.391Z,0.67
2018-09-26T22:58:06.971Z,0.80
2018-09-26T23:00:35.263Z,0.63
2018-09-26T23:03:03.674Z,1.13
2018-09-26T23:05:32.171Z,0.70
2018-09-26T23:08:00.482Z,0.60
2018-09-26T23:10:34.444Z,0.87
2018-09-26T23:13:02.760Z,0.77
2018-09-26T23:15:31.049Z,0.70
2018-09-26T23:17:59.458Z,0.97
2018-09-26T23:20:27.818Z,0.80
2018-09-26T23:22:56.227Z,1.00
2018-09-26T23:25:24.595Z,1.00
2018-09-26T23:27:52.952Z,0.63
2018-09-26T23:30:21.308Z,1.03
2018-09-26T23:32:49.625Z,0.63
2018-09-26T23:35:18.005Z,0.80
2018-09-26T23:37:46.379Z,0.80
2018-09-26T23:40:14.695Z,0.93
2018-09-26T23:42:43.020Z,1.07
2018-09-26T23:45:11.271Z,0.80
2018-09-26T23:47:39.574Z,0.70
2018-09-26T23:50:07.845Z,1.00
2018-09-26T23:52:36.169Z,0.67
2018-09-26T23:55:04.509Z,0.50
2018-09-26T23:57:32.893Z,1.00
